createdAt,value
2022-12-23T00:01:54.313Z,82.85
2022-12-23T00:04:21.884Z,70.60
2022-12-23T00:06:49.343Z,53.97
2022-12-23T00:09:17.091Z,65.63
2022-12-23T00:12:04.451Z,60.72
2022-12-23T00:14:50.510Z,58.60
2022-12-23T00:17:22.595Z,67.25
2022-12-23T00:19:50.366Z,60.05
2022-12-23T00:22:17.746Z,80.35
2022-12-23T00:24:45.246Z,72.35
2022-12-23T00:27:12.627Z,66.18
2022-12-23T00:29:40.131Z,67.55
2022-12-23T00:32:07.584Z,61.70
2022-12-23T00:34:35.089Z,61.95
2022-12-23T00:37:02.497Z,73.15
2022-12-23T00:39:54.629Z,69.93
2022-12-23T00:42:41.378Z,59.83
2022-12-23T00:45:18.455Z,61.85
2022-12-23T00:48:05.792Z,65.80
2022-12-23T00:50:34.137Z,62.05
2022-12-23T00:53:01.591Z,64.75
2022-12-23T00:55:29.048Z,64.10
2022-12-23T00:57:56.424Z,56.95
2022-12-23T01:00:43.975Z,65.25
2022-12-23T01:03:34.220Z,72.57
2022-12-23T01:06:02.331Z,72.45
2022-12-23T01:08:30.029Z,72.65
2022-12-23T01:10:57.493Z,102.03
2022-12-23T01:13:24.929Z,76.18
2022-12-23T01:15:52.350Z,86.07
2022-12-23T01:18:19.760Z,76.70
2022-12-23T01:20:47.247Z,77.47
2022-12-23T01:23:14.757Z,83.80
2022-12-23T01:25:42.271Z,77.55
2022-12-23T01:28:09.689Z,74.13
2022-12-23T01:30:38.303Z,68.72
2022-12-23T01:33:05.727Z,63.35
2022-12-23T01:35:33.127Z,71.93
2022-12-23T01:38:00.582Z,65.88
2022-12-23T01:40:28.012Z,68.75
2022-12-23T01:42:55.436Z,72.57
2022-12-23T01:45:29.060Z,70.50
2022-12-23T01:47:58.593Z,69.25
2022-12-23T01:50:29.089Z,79.82
2022-12-23T01:53:04.782Z,71.90
2022-12-23T01:55:37.337Z,72.60
2022-12-23T01:58:15.811Z,66.80
2022-12-23T02:01:02.097Z,65.72
2022-12-23T02:03:45.325Z,70.68
2022-12-23T02:06:38.210Z,70.47
2022-12-23T02:09:19.238Z,64.03
2022-12-23T02:11:52.451Z,67.65
2022-12-23T02:14:47.703Z,78.70
2022-12-23T02:17:20.969Z,76.00
2022-12-23T02:19:48.380Z,76.53
2022-12-23T02:22:21.873Z,72.90
2022-12-23T02:25:08.005Z,71.70
2022-12-23T02:27:54.213Z,73.97
2022-12-23T02:30:39.066Z,74.82
2022-12-23T02:33:25.208Z,71.78
2022-12-23T02:36:04.972Z,70.10
2022-12-23T02:38:32.398Z,73.10
2022-12-23T02:41:02.509Z,67.03
2022-12-23T02:43:45.252Z,70.30
2022-12-23T02:46:26.709Z,66.40
2022-12-23T02:49:14.433Z,67.65
2022-12-23T02:51:44.120Z,70.38
2022-12-23T02:54:14.062Z,73.82
2022-12-23T02:56:43.959Z,70.18
2022-12-23T02:59:14.104Z,72.72
2022-12-23T03:01:42.291Z,76.03
2022-12-23T03:04:09.973Z,79.18
2022-12-23T03:06:39.912Z,81.10
2022-12-23T03:09:08.097Z,75.50
2022-12-23T03:11:40.283Z,79.28
2022-12-23T03:14:16.988Z,80.07
2022-12-23T03:16:47.502Z,82.97
2022-12-23T03:19:15.013Z,81.65
2022-12-23T03:21:48.894Z,80.95
2022-12-23T03:24:26.792Z,68.60
2022-12-23T03:27:10.593Z,70.60
2022-12-23T03:29:38.024Z,76.70
2022-12-23T03:32:06.129Z,83.70
2022-12-23T03:34:37.355Z,69.40
2022-12-23T03:37:06.880Z,66.70
2022-12-23T03:39:37.657Z,65.45
2022-12-23T03:42:23.578Z,60.85
2022-12-23T03:45:27.926Z,60.42
2022-12-23T03:47:44.678Z,46.08
2022-12-23T03:50:13.834Z,49.15
2022-12-23T03:52:50.316Z,50.25
2022-12-23T03:55:24.075Z,48.70
2022-12-23T03:58:09.861Z,50.08
2022-12-23T04:03:20.887Z,45.35
2022-12-23T04:05:53.820Z,48.05
2022-12-23T04:08:25.219Z,51.50
2022-12-23T04:10:53.197Z,61.28
2022-12-23T04:13:20.578Z,53.83
2022-12-23T04:15:48.265Z,57.83
2022-12-23T04:18:16.536Z,58.30
2022-12-23T04:20:44.003Z,68.30
2022-12-23T04:23:11.461Z,62.50
2022-12-23T04:25:38.916Z,69.95
2022-12-23T04:28:06.374Z,72.32
2022-12-23T04:30:34.844Z,75.50
2022-12-23T04:33:03.004Z,70.90
2022-12-23T04:35:30.599Z,80.18
2022-12-23T04:37:58.073Z,72.30
2022-12-23T04:40:25.506Z,76.57
2022-12-23T04:42:52.898Z,88.47
2022-12-23T04:45:20.426Z,75.13
2022-12-23T04:47:47.936Z,74.00
2022-12-23T04:50:16.157Z,71.88
2022-12-23T04:52:44.487Z,83.82
2022-12-23T04:55:12.431Z,76.72
2022-12-23T04:57:40.075Z,73.53
2022-12-23T05:00:07.845Z,75.50
2022-12-23T05:02:35.411Z,80.90
2022-12-23T05:05:03.041Z,81.20
2022-12-23T05:07:30.459Z,86.40
2022-12-23T05:10:02.064Z,77.20
2022-12-23T05:12:30.644Z,72.47
2022-12-23T05:14:58.100Z,72.78
2022-12-23T05:17:25.590Z,69.40
2022-12-23T05:19:53.059Z,62.90
2022-12-23T05:22:20.659Z,64.75
2022-12-23T05:24:48.070Z,58.25
2022-12-23T05:27:15.612Z,55.28
2022-12-23T05:29:43.085Z,57.88
2022-12-23T05:32:10.615Z,53.65
2022-12-23T05:34:38.053Z,62.60
2022-12-23T05:37:05.613Z,51.22
2022-12-23T05:39:32.978Z,51.35
2022-12-23T05:42:00.424Z,56.08
2022-12-23T05:44:27.815Z,62.03
2022-12-23T05:46:55.269Z,50.08
2022-12-23T05:49:22.918Z,49.03
2022-12-23T05:51:50.383Z,48.17
2022-12-23T05:54:17.810Z,53.55
2022-12-23T05:56:45.282Z,52.80
2022-12-23T05:59:12.841Z,50.08
2022-12-23T06:01:40.369Z,51.42
2022-12-23T06:04:08.066Z,69.60
2022-12-23T06:06:35.550Z,58.67
2022-12-23T06:09:03.004Z,64.47
2022-12-23T06:11:30.433Z,58.83
2022-12-23T06:13:57.907Z,55.40
2022-12-23T06:16:25.356Z,61.70
2022-12-23T06:18:58.876Z,57.03
2022-12-23T06:21:26.735Z,54.67
2022-12-23T06:23:54.179Z,63.97
2022-12-23T06:26:21.582Z,68.63
2022-12-23T06:28:48.989Z,63.03
2022-12-23T06:31:16.783Z,62.22
2022-12-23T06:33:44.221Z,77.40
2022-12-23T06:36:11.806Z,74.03
2022-12-23T06:38:39.216Z,69.88
2022-12-23T06:41:07.656Z,76.00
2022-12-23T06:43:35.106Z,71.65
2022-12-23T06:46:02.680Z,82.82
2022-12-23T06:48:30.183Z,82.93
2022-12-23T06:50:57.668Z,73.70
2022-12-23T06:53:25.386Z,74.78
2022-12-23T06:56:00.029Z,68.85
2022-12-23T06:58:27.463Z,73.00
2022-12-23T07:00:55.335Z,69.90
2022-12-23T07:03:23.186Z,73.63
2022-12-23T07:05:53.853Z,71.13
2022-12-23T07:08:21.640Z,62.97
2022-12-23T07:10:49.028Z,66.57
2022-12-23T07:13:16.502Z,69.93
2022-12-23T07:15:43.899Z,134.00
2022-12-23T07:18:11.378Z,90.65
2022-12-23T07:20:38.756Z,72.25
2022-12-23T07:23:06.267Z,72.85
2022-12-23T07:25:33.637Z,68.97
2022-12-23T07:28:01.239Z,80.80
2022-12-23T07:30:29.252Z,59.60
2022-12-23T07:32:56.767Z,56.47
2022-12-23T07:35:24.509Z,61.60
2022-12-23T07:37:53.895Z,62.53
2022-12-23T07:40:21.277Z,60.85
2022-12-23T07:42:49.974Z,60.08
2022-12-23T07:45:17.643Z,59.65
2022-12-23T07:47:45.207Z,59.15
2022-12-23T07:50:13.152Z,56.92
2022-12-23T07:52:40.558Z,61.92
2022-12-23T07:55:08.411Z,68.72
2022-12-23T07:57:38.244Z,64.22
2022-12-23T08:00:07.276Z,58.83
2022-12-23T08:02:39.937Z,58.47
2022-12-23T08:05:08.105Z,69.65
2022-12-23T08:07:35.611Z,63.35
2022-12-23T08:10:03.393Z,54.78
2022-12-23T08:12:30.791Z,52.95
2022-12-23T08:14:58.294Z,46.58
2022-12-23T08:17:29.641Z,46.97
2022-12-23T08:19:57.253Z,45.22
2022-12-23T08:22:25.043Z,43.85
2022-12-23T08:24:53.210Z,47.50
2022-12-23T08:27:20.619Z,49.47
2022-12-23T08:29:48.111Z,46.63
2022-12-23T08:32:15.633Z,45.45
2022-12-23T08:34:43.043Z,57.72
2022-12-23T08:37:10.501Z,58.92
2022-12-23T08:39:38.028Z,56.45
2022-12-23T08:42:05.565Z,55.28
2022-12-23T08:44:33.017Z,55.03
2022-12-23T08:47:00.511Z,55.70
2022-12-23T08:49:28.143Z,54.13
2022-12-23T08:51:55.604Z,61.45
2022-12-23T08:54:23.884Z,57.83
2022-12-23T08:56:51.556Z,57.95
2022-12-23T08:59:19.923Z,61.33
2022-12-23T09:01:48.379Z,59.60
2022-12-23T09:04:16.082Z,60.10
2022-12-23T09:06:43.805Z,55.20
2022-12-23T09:09:12.681Z,55.33
2022-12-23T09:11:40.248Z,60.63
2022-12-23T09:14:10.175Z,58.80
2022-12-23T09:16:38.266Z,63.83
2022-12-23T09:19:05.756Z,66.80
2022-12-23T09:21:33.225Z,60.78
2022-12-23T09:24:00.635Z,61.35
2022-12-23T09:26:30.128Z,67.45
2022-12-23T09:28:57.919Z,61.47
2022-12-23T09:31:30.442Z,66.30
2022-12-23T09:34:01.759Z,65.32
2022-12-23T09:36:29.955Z,66.80
2022-12-23T09:38:58.156Z,69.22
2022-12-23T09:41:44.462Z,65.80
2022-12-23T09:44:14.683Z,68.10
2022-12-23T09:47:02.566Z,65.95
2022-12-23T09:49:30.220Z,63.03
2022-12-23T09:52:05.429Z,66.53
2022-12-23T09:57:00.167Z,65.47
2022-12-23T09:59:30.732Z,74.40
2022-12-23T10:02:01.713Z,60.28
2022-12-23T10:04:34.735Z,66.32
2022-12-23T10:07:05.193Z,64.75
2022-12-23T10:09:43.721Z,61.05
2022-12-23T10:12:27.632Z,60.15
2022-12-23T10:14:58.084Z,62.30
2022-12-23T10:17:31.172Z,60.60
2022-12-23T10:20:01.045Z,64.82
2022-12-23T10:22:39.520Z,66.05
2022-12-23T10:25:14.212Z,60.92
2022-12-23T10:27:42.720Z,63.92
2022-12-23T10:30:51.554Z,68.63
2022-12-23T10:33:08.691Z,60.70
2022-12-23T10:35:56.241Z,65.50
2022-12-23T10:38:26.709Z,63.40
2022-12-23T10:41:09.961Z,63.65
2022-12-23T10:43:42.499Z,61.10
2022-12-23T10:46:22.407Z,67.32
2022-12-23T10:48:50.038Z,66.65
2022-12-23T10:51:20.673Z,64.10
2022-12-23T10:53:51.316Z,61.85
2022-12-23T10:56:19.321Z,66.35
2022-12-23T10:58:49.756Z,63.35
2022-12-23T11:01:26.157Z,63.58
2022-12-23T11:03:54.824Z,65.53
2022-12-23T11:06:22.326Z,65.45
2022-12-23T11:08:50.267Z,63.15
2022-12-23T11:11:17.666Z,64.93
2022-12-23T11:13:47.044Z,59.30
2022-12-23T11:16:22.092Z,67.30
2022-12-23T11:18:53.909Z,63.33
2022-12-23T11:21:21.527Z,66.05
2022-12-23T11:23:49.182Z,64.35
2022-12-23T11:26:20.172Z,64.95
2022-12-23T11:28:51.717Z,62.95
2022-12-23T11:31:27.179Z,66.97
2022-12-23T11:34:01.876Z,62.88
2022-12-23T11:36:30.263Z,61.92
2022-12-23T11:39:08.568Z,61.17
2022-12-23T11:41:38.317Z,63.00
2022-12-23T11:44:05.711Z,64.40
2022-12-23T11:46:34.546Z,63.35
2022-12-23T11:49:21.518Z,62.45
2022-12-23T11:52:00.835Z,63.60
2022-12-23T11:54:28.911Z,62.90
2022-12-23T11:56:56.975Z,62.65
2022-12-23T11:59:34.612Z,64.55
2022-12-23T12:02:04.478Z,63.53
2022-12-23T12:04:33.868Z,61.20
2022-12-23T12:07:02.220Z,61.15
2022-12-23T12:09:31.331Z,66.97
2022-12-23T12:12:07.129Z,61.33
2022-12-23T12:14:49.182Z,65.90
2022-12-23T12:17:36.313Z,67.82
2022-12-23T12:20:10.073Z,73.32
2022-12-23T12:22:42.451Z,72.68
2022-12-23T12:25:24.031Z,70.63
2022-12-23T12:27:57.523Z,66.55
2022-12-23T12:30:26.659Z,71.00
2022-12-23T12:32:54.077Z,64.88
2022-12-23T12:35:44.890Z,59.92
2022-12-23T12:38:18.540Z,57.38
2022-12-23T12:40:51.671Z,57.65
2022-12-23T12:43:28.457Z,66.00
2022-12-23T12:46:05.281Z,65.90
2022-12-23T12:48:37.070Z,65.10
2022-12-23T12:51:13.815Z,64.85
2022-12-23T12:53:47.509Z,61.45
2022-12-23T12:56:28.551Z,65.95
2022-12-23T12:58:56.097Z,66.50
2022-12-23T13:01:32.467Z,69.07
2022-12-23T13:04:02.787Z,72.22
2022-12-23T13:06:36.355Z,68.18
2022-12-23T13:09:13.197Z,70.70
2022-12-23T13:11:49.672Z,64.05
2022-12-23T13:14:30.079Z,71.15
2022-12-23T13:16:57.518Z,65.47
2022-12-23T13:19:34.257Z,68.63
2022-12-23T13:22:01.622Z,71.60
2022-12-23T13:24:41.025Z,62.35
2022-12-23T13:27:13.730Z,67.75
2022-12-23T13:30:00.074Z,73.25
2022-12-23T13:32:45.991Z,67.53
2022-12-23T13:35:13.413Z,67.35
2022-12-23T13:37:52.504Z,74.82
2022-12-23T13:40:38.323Z,66.97
2022-12-23T13:43:07.806Z,65.95
2022-12-23T13:45:37.441Z,70.40
2022-12-23T13:48:07.772Z,66.72
2022-12-23T13:50:41.703Z,72.60
2022-12-23T13:53:17.144Z,66.97
2022-12-23T13:55:44.693Z,76.03
2022-12-23T13:58:22.492Z,67.93
2022-12-23T14:00:58.722Z,72.22
2022-12-23T14:03:33.763Z,69.45
2022-12-23T14:06:19.336Z,72.15
2022-12-23T14:08:47.750Z,71.28
2022-12-23T14:11:32.147Z,71.35
2022-12-23T14:14:06.928Z,72.93
2022-12-23T14:16:40.520Z,71.15
2022-12-23T14:19:24.420Z,70.50
2022-12-23T14:21:51.848Z,66.43
2022-12-23T14:24:22.892Z,71.30
2022-12-23T14:27:08.694Z,69.18
2022-12-23T14:29:39.256Z,72.03
2022-12-23T14:32:18.451Z,65.65
2022-12-23T14:35:05.224Z,63.75
2022-12-23T14:37:34.008Z,68.45
2022-12-23T14:40:21.445Z,61.72
2022-12-23T14:42:48.938Z,60.25
2022-12-23T14:45:28.802Z,67.30
2022-12-23T14:47:56.345Z,70.45
2022-12-23T14:50:36.122Z,64.30
2022-12-23T14:53:24.693Z,70.55
2022-12-23T14:56:12.465Z,68.40
2022-12-23T14:58:52.022Z,65.22
2022-12-23T15:01:27.103Z,63.33
2022-12-23T15:04:01.231Z,64.43
2022-12-23T15:06:32.372Z,65.80
2022-12-23T15:08:59.972Z,68.35
2022-12-23T15:11:32.308Z,68.88
2022-12-23T15:14:01.021Z,70.85
2022-12-23T15:16:46.534Z,71.65
2022-12-23T15:19:19.973Z,68.15
2022-12-23T15:21:52.038Z,70.10
2022-12-23T15:24:25.825Z,72.88
2022-12-23T15:27:24.531Z,69.10
2022-12-23T15:29:44.299Z,78.47
2022-12-23T15:32:12.402Z,80.05
2022-12-23T15:34:40.100Z,83.40
2022-12-23T15:37:11.423Z,71.07
2022-12-23T15:39:41.126Z,76.45
2022-12-23T15:42:38.728Z,79.85
2022-12-23T15:45:27.698Z,79.78
2022-12-23T15:47:55.209Z,76.20
2022-12-23T15:50:22.661Z,81.82
2022-12-23T15:52:51.309Z,84.53
2022-12-23T15:55:23.942Z,84.57
2022-12-23T15:57:52.289Z,84.18
2022-12-23T16:00:40.496Z,83.95
2022-12-23T16:03:20.230Z,85.75
2022-12-23T16:05:47.877Z,96.43
2022-12-23T16:08:21.700Z,91.07
2022-12-23T16:10:58.544Z,99.13
2022-12-23T16:13:26.428Z,98.30
2022-12-23T16:15:55.084Z,122.88
2022-12-23T16:18:25.853Z,121.85
2022-12-23T16:20:58.081Z,119.85
2022-12-23T16:23:29.339Z,114.32
2022-12-23T16:25:58.510Z,121.30
2022-12-23T16:28:34.824Z,107.93
2022-12-23T16:31:06.347Z,104.78
2022-12-23T16:33:43.026Z,106.47
2022-12-23T16:36:21.995Z,104.43
2022-12-23T16:38:49.991Z,103.72
2022-12-23T16:41:18.197Z,103.03
2022-12-23T16:43:52.006Z,103.80
2022-12-23T16:46:21.119Z,110.77
2022-12-23T16:48:59.658Z,121.28
2022-12-23T16:51:28.135Z,116.57
2022-12-23T16:53:56.529Z,114.35
2022-12-23T16:56:27.341Z,112.68
2022-12-23T16:58:54.841Z,107.03
2022-12-23T17:01:22.588Z,104.30
2022-12-23T17:03:50.479Z,101.20
2022-12-23T17:06:18.476Z,105.30
2022-12-23T17:08:45.956Z,105.07
2022-12-23T17:11:17.249Z,105.45
2022-12-23T17:13:45.438Z,115.97
2022-12-23T17:16:16.498Z,133.43
2022-12-23T17:18:44.066Z,127.55
2022-12-23T17:21:20.433Z,114.68
2022-12-23T17:23:48.708Z,119.55
2022-12-23T17:26:16.108Z,123.82
2022-12-23T17:28:43.561Z,130.95
2022-12-23T17:31:15.388Z,129.63
2022-12-23T17:33:44.725Z,136.00
2022-12-23T17:36:12.649Z,146.63
2022-12-23T17:38:40.238Z,143.45
2022-12-23T17:41:07.940Z,164.98
2022-12-23T17:43:35.377Z,237.00
2022-12-23T17:46:02.955Z,248.57
2022-12-23T17:48:32.004Z,247.85
2022-12-23T17:50:59.661Z,325.50
2022-12-23T17:53:27.153Z,321.85
2022-12-23T17:55:54.546Z,324.50
2022-12-23T17:58:22.095Z,297.33
2022-12-23T18:00:49.643Z,294.27
2022-12-23T18:03:26.538Z,285.33
2022-12-23T18:06:01.227Z,281.77
2022-12-23T18:08:29.607Z,271.33
2022-12-23T18:10:58.070Z,247.05
2022-12-23T18:13:25.534Z,222.30
2022-12-23T18:15:53.121Z,260.73
2022-12-23T18:18:27.458Z,161.57
2022-12-23T18:20:58.892Z,170.30
2022-12-23T18:23:27.456Z,156.85
2022-12-23T18:25:55.614Z,152.82
2022-12-23T18:28:23.360Z,165.38
2022-12-23T18:30:51.476Z,147.98
2022-12-23T18:33:19.091Z,150.55
2022-12-23T18:35:47.712Z,143.85
2022-12-23T18:38:15.535Z,145.52
2022-12-23T18:40:43.560Z,157.82
2022-12-23T18:43:18.188Z,167.02
2022-12-23T18:45:50.707Z,198.93
2022-12-23T18:48:20.234Z,202.90
2022-12-23T18:50:47.696Z,196.85
2022-12-23T18:53:23.504Z,197.50
2022-12-23T18:55:52.718Z,193.95
2022-12-23T18:58:20.317Z,196.75
2022-12-23T19:00:48.595Z,203.38
2022-12-23T19:03:25.191Z,183.73
2022-12-23T19:05:53.512Z,182.10
2022-12-23T19:08:26.227Z,178.63
2022-12-23T19:10:55.603Z,203.48
2022-12-23T19:13:23.302Z,201.32
2022-12-23T19:15:51.004Z,208.85
2022-12-23T19:18:20.184Z,209.18
2022-12-23T19:20:48.748Z,215.65
2022-12-23T19:23:16.694Z,206.55
2022-12-23T19:25:52.628Z,213.05
2022-12-23T19:28:22.750Z,212.35
2022-12-23T19:30:50.597Z,230.25
2022-12-23T19:33:18.105Z,227.35
2022-12-23T19:35:45.492Z,240.60
2022-12-23T19:38:13.046Z,263.92
2022-12-23T19:40:40.897Z,316.02
2022-12-23T19:43:08.800Z,321.35
2022-12-23T19:45:36.237Z,310.80
2022-12-23T19:48:03.874Z,298.02
2022-12-23T19:50:31.313Z,279.95
2022-12-23T19:52:58.890Z,283.15
2022-12-23T19:55:26.368Z,277.70
2022-12-23T19:57:53.841Z,285.45
2022-12-23T20:00:21.290Z,272.60
2022-12-23T20:02:52.451Z,270.27
2022-12-23T20:05:24.262Z,281.02
2022-12-23T20:07:51.657Z,285.73
2022-12-23T20:10:19.225Z,285.27
2022-12-23T20:12:46.624Z,286.08
2022-12-23T20:15:14.094Z,306.30
2022-12-23T20:17:41.669Z,292.08
2022-12-23T20:20:09.696Z,285.77
2022-12-23T20:22:37.146Z,283.92
2022-12-23T20:25:04.842Z,287.05
2022-12-23T20:27:32.425Z,286.55
2022-12-23T20:29:59.913Z,291.50
2022-12-23T20:32:27.344Z,284.48
2022-12-23T20:34:54.748Z,275.13
2022-12-23T20:37:22.208Z,275.58
2022-12-23T20:39:49.667Z,273.50
2022-12-23T20:42:17.059Z,288.38
2022-12-23T20:44:44.520Z,279.08
2022-12-23T20:47:11.969Z,283.90
2022-12-23T20:49:39.463Z,268.02
2022-12-23T20:52:06.896Z,261.58
2022-12-23T20:54:34.387Z,265.65
2022-12-23T20:57:02.669Z,254.75
2022-12-23T20:59:30.198Z,246.40
2022-12-23T21:01:59.268Z,231.25
2022-12-23T21:04:27.103Z,237.70
2022-12-23T21:06:54.499Z,227.82
2022-12-23T21:09:21.964Z,234.15
2022-12-23T21:11:49.429Z,218.90
2022-12-23T21:14:17.096Z,230.07
2022-12-23T21:16:45.046Z,214.27
2022-12-23T21:19:19.800Z,197.63
2022-12-23T21:21:47.727Z,167.75
2022-12-23T21:24:15.499Z,158.85
2022-12-23T21:26:43.854Z,151.57
2022-12-23T21:29:11.577Z,142.00
2022-12-23T21:31:40.963Z,146.38
2022-12-23T21:34:09.095Z,162.70
2022-12-23T21:36:38.615Z,175.00
2022-12-23T21:39:06.884Z,189.70
2022-12-23T21:41:38.104Z,209.75
2022-12-23T21:44:05.932Z,252.27
2022-12-23T21:46:33.395Z,275.20
2022-12-23T21:49:00.871Z,263.75
2022-12-23T21:51:38.598Z,235.60
2022-12-23T21:54:07.435Z,222.68
2022-12-23T21:56:34.870Z,204.18
2022-12-23T21:59:03.889Z,216.50
2022-12-23T22:01:31.672Z,228.73
2022-12-23T22:03:59.341Z,234.40
2022-12-23T22:06:28.782Z,233.98
2022-12-23T22:08:56.816Z,225.43
2022-12-23T22:11:25.435Z,242.40
2022-12-23T22:13:53.408Z,237.73
2022-12-23T22:16:22.623Z,228.85
2022-12-23T22:18:50.685Z,235.27
2022-12-23T22:21:19.212Z,232.23
2022-12-23T22:23:46.924Z,248.35
2022-12-23T22:26:20.450Z,234.10
2022-12-23T22:28:51.630Z,200.63
2022-12-23T22:31:19.027Z,208.63
2022-12-23T22:33:46.937Z,186.30
2022-12-23T22:36:15.237Z,174.23
2022-12-23T22:38:42.752Z,181.80
2022-12-23T22:41:10.821Z,179.85
2022-12-23T22:43:38.760Z,174.18
2022-12-23T22:46:06.458Z,165.73
2022-12-23T22:48:34.101Z,176.98
2022-12-23T22:51:02.371Z,169.18
2022-12-23T22:53:30.227Z,164.13
2022-12-23T22:55:58.503Z,166.05
2022-12-23T22:58:26.305Z,174.82
2022-12-23T23:00:53.792Z,169.15
2022-12-23T23:03:21.673Z,171.73
2022-12-23T23:05:59.038Z,155.90
2022-12-23T23:08:26.711Z,165.80
2022-12-23T23:10:54.264Z,167.98
2022-12-23T23:13:21.728Z,175.88
2022-12-23T23:15:49.284Z,179.85
2022-12-23T23:18:17.036Z,175.65
2022-12-23T23:20:44.502Z,170.63
2022-12-23T23:23:11.976Z,155.05
2022-12-23T23:25:39.399Z,158.70
2022-12-23T23:28:06.911Z,166.75
2022-12-23T23:30:34.548Z,159.93
2022-12-23T23:33:01.996Z,155.05
2022-12-23T23:35:29.402Z,160.40
2022-12-23T23:37:56.810Z,144.68
2022-12-23T23:40:24.428Z,146.68
2022-12-23T23:42:51.914Z,147.55
2022-12-23T23:45:19.352Z,144.80
2022-12-23T23:47:46.834Z,148.73
2022-12-23T23:50:14.475Z,150.95
2022-12-23T23:52:42.117Z,139.50
2022-12-23T23:55:09.818Z,124.53
2022-12-23T23:57:37.325Z,115.47
